createdAt,value
2019-04-01T00:01:07.665Z,7.50
2019-04-01T00:03:35.067Z,9.73
2019-04-01T00:06:02.485Z,11.80
2019-04-01T00:08:29.813Z,9.38
2019-04-01T00:10:57.223Z,10.70
2019-04-01T00:13:24.550Z,11.03
2019-04-01T00:15:51.917Z,8.80
2019-04-01T00:18:19.212Z,6.10
2019-04-01T00:20:46.529Z,10.43
2019-04-01T00:23:13.849Z,10.32
2019-04-01T00:25:41.172Z,8.38
2019-04-01T00:28:08.455Z,6.90
2019-04-01T00:30:35.828Z,9.98
2019-04-01T00:33:03.201Z,8.03
2019-04-01T00:35:30.537Z,8.55
2019-04-01T00:37:57.952Z,5.90
2019-04-01T00:40:25.461Z,3.37
2019-04-01T00:42:57.457Z,11.90
2019-04-01T00:45:26.819Z,11.03
2019-04-01T00:47:54.185Z,6.17
2019-04-01T00:50:21.655Z,5.42
2019-04-01T00:52:49.781Z,8.30
2019-04-01T00:55:17.129Z,6.58
2019-04-01T00:57:44.658Z,6.62
2019-04-01T01:00:13.919Z,6.47
2019-04-01T01:02:41.257Z,6.83
2019-04-01T01:05:08.733Z,6.30
2019-04-01T01:07:36.206Z,14.53
2019-04-01T01:10:05.155Z,7.20
2019-04-01T01:12:32.551Z,6.92
2019-04-01T01:15:00.027Z,8.68
2019-04-01T01:17:27.543Z,6.45
2019-04-01T01:19:55.463Z,6.92
2019-04-01T01:22:23.180Z,6.20
2019-04-01T01:24:50.465Z,7.90
2019-04-01T01:27:17.787Z,5.22
2019-04-01T01:29:45.148Z,4.97
2019-04-01T01:32:12.461Z,6.75
2019-04-01T01:34:39.839Z,8.55
2019-04-01T01:37:07.120Z,6.70
2019-04-01T01:39:34.433Z,5.33
2019-04-01T01:42:01.819Z,8.53
2019-04-01T01:44:29.127Z,6.03
2019-04-01T01:46:56.606Z,5.78
2019-04-01T01:49:24.068Z,7.40
2019-04-01T01:51:51.422Z,7.83
2019-04-01T01:54:18.830Z,7.55
2019-04-01T01:56:46.134Z,7.42
2019-04-01T01:59:13.438Z,4.87
2019-04-01T02:01:40.740Z,8.68
2019-04-01T02:04:08.173Z,6.70
2019-04-01T02:06:35.493Z,8.68
2019-04-01T02:09:03.480Z,6.75
2019-04-01T02:11:30.766Z,7.62
2019-04-01T02:13:58.134Z,8.93
2019-04-01T02:16:25.423Z,5.85
2019-04-01T02:18:52.744Z,6.55
2019-04-01T02:21:20.182Z,6.12
2019-04-01T02:23:57.473Z,5.70
2019-04-01T02:26:27.940Z,9.18
2019-04-01T02:28:55.679Z,6.17
2019-04-01T02:31:23.274Z,5.47
2019-04-01T02:33:52.141Z,7.50
2019-04-01T02:36:20.820Z,5.45
2019-04-01T02:38:51.846Z,5.00
2019-04-01T02:41:19.456Z,6.65
2019-04-01T02:43:46.888Z,7.42
2019-04-01T02:46:14.431Z,9.15
2019-04-01T02:48:42.069Z,8.18
2019-04-01T02:51:27.037Z,9.25
2019-04-01T02:53:54.657Z,6.15
2019-04-01T02:56:22.112Z,6.72
2019-04-01T02:58:50.039Z,8.98
2019-04-01T03:04:04.526Z,8.35
2019-04-01T03:06:33.794Z,7.92
2019-04-01T03:09:01.685Z,14.90
2019-04-01T03:11:31.645Z,12.73
2019-04-01T03:13:59.289Z,16.42
2019-04-01T03:16:26.793Z,18.37
2019-04-01T03:18:54.289Z,16.20
2019-04-01T03:21:21.949Z,10.58
2019-04-01T03:23:49.507Z,12.47
2019-04-01T03:26:17.033Z,8.03
2019-04-01T03:28:44.624Z,17.57
2019-04-01T03:31:12.155Z,13.35
2019-04-01T03:33:39.913Z,13.43
2019-04-01T03:36:07.511Z,13.03
2019-04-01T03:38:35.170Z,12.03
2019-04-01T03:41:02.811Z,13.83
2019-04-01T03:43:31.301Z,13.60
2019-04-01T03:45:59.022Z,11.25
2019-04-01T03:48:26.828Z,12.43
2019-04-01T03:50:54.649Z,22.25
2019-04-01T03:53:22.462Z,12.80
2019-04-01T03:55:49.878Z,10.93
2019-04-01T03:58:17.263Z,9.48
2019-04-01T04:00:44.689Z,13.08
2019-04-01T04:03:12.001Z,9.35
2019-04-01T04:05:39.291Z,6.72
2019-04-01T04:08:06.680Z,6.58
2019-04-01T04:10:34.336Z,11.25
2019-04-01T04:13:01.625Z,11.12
2019-04-01T04:15:28.927Z,7.65
2019-04-01T04:17:56.206Z,6.53
2019-04-01T04:20:23.643Z,8.45
2019-04-01T04:22:50.942Z,5.75
2019-04-01T04:25:18.401Z,12.45
2019-04-01T04:27:45.810Z,8.63
2019-04-01T04:30:14.685Z,9.20
2019-04-01T04:32:42.067Z,6.62
2019-04-01T04:35:09.465Z,4.12
2019-04-01T04:37:36.803Z,6.97
2019-04-01T04:40:05.939Z,7.35
2019-04-01T04:42:33.251Z,6.72
2019-04-01T04:45:00.616Z,10.88
2019-04-01T04:47:27.918Z,5.22
2019-04-01T04:49:55.305Z,5.97
2019-04-01T04:52:23.011Z,6.25
2019-04-01T04:54:50.428Z,4.78
2019-04-01T04:57:20.259Z,11.00
2019-04-01T04:59:46.817Z,6.97
2019-04-01T05:02:14.173Z,10.95
2019-04-01T05:04:41.538Z,9.53
2019-04-01T05:07:08.831Z,7.53
2019-04-01T05:09:36.215Z,9.20
2019-04-01T05:12:03.697Z,7.62
2019-04-01T05:14:31.159Z,17.35
2019-04-01T05:16:58.473Z,13.43
2019-04-01T05:19:25.862Z,8.93
2019-04-01T05:21:53.902Z,7.25
2019-04-01T05:24:21.399Z,7.15
2019-04-01T05:26:48.692Z,10.63
2019-04-01T05:29:17.633Z,4.80
2019-04-01T05:31:46.449Z,7.20
2019-04-01T05:34:14.596Z,8.95
2019-04-01T05:36:42.033Z,6.72
2019-04-01T05:39:09.407Z,8.48
2019-04-01T05:41:36.929Z,10.85
2019-04-01T05:44:04.339Z,9.43
2019-04-01T05:46:31.707Z,11.03
2019-04-01T05:48:59.057Z,10.40
2019-04-01T05:51:26.415Z,5.92
2019-04-01T05:53:53.707Z,10.95
2019-04-01T05:56:21.120Z,6.78
2019-04-01T05:58:48.476Z,10.20
2019-04-01T06:01:20.211Z,5.10
2019-04-01T06:03:47.650Z,7.62
2019-04-01T06:06:15.053Z,7.40
2019-04-01T06:08:42.333Z,9.70
2019-04-01T06:11:09.685Z,5.00
2019-04-01T06:13:36.971Z,4.90
2019-04-01T06:16:04.270Z,7.37
2019-04-01T06:18:31.625Z,6.90
2019-04-01T06:20:59.002Z,8.45
2019-04-01T06:23:26.355Z,7.00
2019-04-01T06:25:53.671Z,6.33
2019-04-01T06:28:21.028Z,11.33
2019-04-01T06:30:49.187Z,14.03
2019-04-01T06:33:16.532Z,8.48
2019-04-01T06:35:43.901Z,13.48
2019-04-01T06:38:11.287Z,9.98
2019-04-01T06:40:38.665Z,7.17
2019-04-01T06:43:05.965Z,10.13
2019-04-01T06:45:33.421Z,8.25
2019-04-01T06:48:00.739Z,4.90
2019-04-01T06:50:28.109Z,9.08
2019-04-01T06:52:55.461Z,6.40
2019-04-01T06:55:22.837Z,7.47
2019-04-01T06:57:50.484Z,10.15
2019-04-01T07:00:17.850Z,7.22
2019-04-01T07:02:45.218Z,8.43
2019-04-01T07:05:12.914Z,8.98
2019-04-01T07:07:40.597Z,8.40
2019-04-01T07:10:08.117Z,9.73
2019-04-01T07:12:35.529Z,12.17
2019-04-01T07:15:03.017Z,9.97
2019-04-01T07:17:30.831Z,11.00
2019-04-01T07:19:58.224Z,11.73
2019-04-01T07:22:25.544Z,17.93
2019-04-01T07:24:52.950Z,13.90
2019-04-01T07:27:20.328Z,18.53
2019-04-01T07:29:47.723Z,35.43
2019-04-01T07:32:15.013Z,16.63
2019-04-01T07:34:42.344Z,17.60
2019-04-01T07:37:09.852Z,17.37
2019-04-01T07:39:37.242Z,17.37
2019-04-01T07:42:04.736Z,16.43
2019-04-01T07:44:32.166Z,16.40
2019-04-01T07:46:59.472Z,18.57
2019-04-01T07:49:26.865Z,13.37
2019-04-01T07:51:54.347Z,12.10
2019-04-01T07:54:21.878Z,12.73
2019-04-01T07:56:49.502Z,19.53
2019-04-01T07:59:16.936Z,12.53
2019-04-01T08:01:44.436Z,12.37
2019-04-01T08:04:13.974Z,12.77
2019-04-01T08:06:41.338Z,16.27
2019-04-01T08:09:08.756Z,11.80
2019-04-01T08:11:36.068Z,23.43
2019-04-01T08:14:03.807Z,10.47
2019-04-01T08:16:31.197Z,10.10
2019-04-01T08:18:58.825Z,10.63
2019-04-01T08:21:26.181Z,11.00
2019-04-01T08:23:53.612Z,11.07
2019-04-01T08:26:20.961Z,11.00
2019-04-01T08:28:48.432Z,9.30
2019-04-01T08:31:15.862Z,8.40
2019-04-01T08:33:43.134Z,11.20
2019-04-01T08:36:10.488Z,10.20
2019-04-01T08:38:37.788Z,11.97
2019-04-01T08:41:06.191Z,11.93
2019-04-01T08:43:33.642Z,8.40
2019-04-01T08:46:11.176Z,8.33
2019-04-01T08:48:38.539Z,7.70
2019-04-01T08:51:05.957Z,5.87
2019-04-01T08:53:33.364Z,7.80
2019-04-01T08:56:01.349Z,9.80
2019-04-01T08:58:29.051Z,10.80
2019-04-01T09:00:56.420Z,9.40
2019-04-01T09:03:23.733Z,8.63
2019-04-01T09:05:52.007Z,9.43
2019-04-01T09:08:19.953Z,7.67
2019-04-01T09:10:47.381Z,8.27
2019-04-01T09:13:15.324Z,6.10
2019-04-01T09:15:42.724Z,6.70
2019-04-01T09:18:10.155Z,7.90
2019-04-01T09:20:37.469Z,12.27
2019-04-01T09:23:04.898Z,12.90
2019-04-01T09:25:32.339Z,15.57
2019-04-01T09:27:59.766Z,13.10
2019-04-01T09:30:27.192Z,8.50
2019-04-01T09:32:54.675Z,5.67
2019-04-01T09:35:22.111Z,9.10
2019-04-01T09:37:49.461Z,6.23
2019-04-01T09:40:16.973Z,6.80
2019-04-01T09:42:44.365Z,5.43
2019-04-01T09:45:11.759Z,7.60
2019-04-01T09:47:39.248Z,7.03
2019-04-01T09:50:06.910Z,6.13
2019-04-01T09:52:34.195Z,5.10
2019-04-01T09:55:36.180Z,4.73
2019-04-01T09:58:03.630Z,5.30
2019-04-01T10:00:31.773Z,7.30
2019-04-01T10:03:10.358Z,5.73
2019-04-01T10:05:38.037Z,7.00
2019-04-01T10:08:05.706Z,6.90
2019-04-01T10:10:33.089Z,6.47
2019-04-01T10:13:00.375Z,7.83
2019-04-01T10:15:27.779Z,7.20
2019-04-01T10:17:55.056Z,5.60
2019-04-01T10:20:22.443Z,4.10
2019-04-01T10:22:49.743Z,8.73
2019-04-01T10:25:17.055Z,7.03
2019-04-01T10:27:44.331Z,6.37
2019-04-01T10:30:12.035Z,4.47
2019-04-01T10:32:39.397Z,6.17
2019-04-01T10:35:07.957Z,6.50
2019-04-01T10:37:35.247Z,6.80
2019-04-01T10:40:02.751Z,8.73
2019-04-01T10:42:30.034Z,5.20
2019-04-01T10:44:57.315Z,7.27
2019-04-01T10:47:24.623Z,5.43
2019-04-01T10:49:52.060Z,5.30
2019-04-01T10:52:19.495Z,4.73
2019-04-01T10:54:47.013Z,6.70
2019-04-01T10:57:14.553Z,5.50
2019-04-01T10:59:41.947Z,5.83
2019-04-01T11:02:10.598Z,7.30
2019-04-01T11:04:38.003Z,5.90
2019-04-01T11:07:06.599Z,4.23
2019-04-01T11:09:38.631Z,8.33
2019-04-01T11:12:03.054Z,9.43
2019-04-01T11:14:30.399Z,6.87
2019-04-01T11:16:57.832Z,4.00
2019-04-01T11:19:25.235Z,9.60
2019-04-01T11:21:52.651Z,5.57
2019-04-01T11:24:20.132Z,5.53
2019-04-01T11:26:47.581Z,4.97
2019-04-01T11:29:14.970Z,7.80
2019-04-01T11:31:42.372Z,5.90
2019-04-01T11:34:09.812Z,6.53
2019-04-01T11:36:37.172Z,5.43
2019-04-01T11:39:05.749Z,4.00
2019-04-01T11:41:33.096Z,7.70
2019-04-01T11:44:00.511Z,5.47
2019-04-01T11:46:27.928Z,6.62
2019-04-01T11:48:55.357Z,6.50
2019-04-01T11:51:32.757Z,5.00
2019-04-01T11:53:51.702Z,4.78
2019-04-01T11:56:19.085Z,3.62
2019-04-01T11:58:46.466Z,8.08
2019-04-01T12:01:13.868Z,6.35
2019-04-01T12:03:41.220Z,5.25
2019-04-01T12:06:08.525Z,3.47
2019-04-01T12:08:35.874Z,5.55
2019-04-01T12:11:03.318Z,5.35
2019-04-01T12:13:30.723Z,4.08
2019-04-01T12:15:58.102Z,6.00
2019-04-01T12:18:25.558Z,4.33
2019-04-01T12:20:52.899Z,5.45
2019-04-01T12:23:20.273Z,5.87
2019-04-01T12:25:47.684Z,8.13
2019-04-01T12:28:15.126Z,5.33
2019-04-01T12:30:42.504Z,9.15
2019-04-01T12:33:09.790Z,5.70
2019-04-01T12:35:37.100Z,9.55
2019-04-01T12:38:04.857Z,4.97
2019-04-01T12:40:32.166Z,5.87
2019-04-01T12:42:59.529Z,6.10
2019-04-01T12:45:26.838Z,4.55
2019-04-01T12:47:54.231Z,4.95
2019-04-01T12:50:21.574Z,6.22
2019-04-01T12:52:49.015Z,3.80
2019-04-01T12:55:16.432Z,4.90
2019-04-01T12:57:44.067Z,4.60
2019-04-01T13:00:13.243Z,4.17
2019-04-01T13:02:40.601Z,5.92
2019-04-01T13:05:08.052Z,4.42
2019-04-01T13:07:35.416Z,6.33
2019-04-01T13:10:03.150Z,8.20
2019-04-01T13:12:30.535Z,5.03
2019-04-01T13:14:57.802Z,5.28
2019-04-01T13:17:25.210Z,6.00
2019-04-01T13:19:52.570Z,4.55
2019-04-01T13:22:19.990Z,4.53
2019-04-01T13:24:47.290Z,3.12
2019-04-01T13:27:14.608Z,4.95
2019-04-01T13:29:41.969Z,5.25
2019-04-01T13:32:09.319Z,4.20
2019-04-01T13:34:36.736Z,5.42
2019-04-01T13:37:04.156Z,5.72
2019-04-01T13:39:31.570Z,3.72
2019-04-01T13:41:58.905Z,5.10
2019-04-01T13:44:36.971Z,3.00
2019-04-01T13:46:56.019Z,4.33
2019-04-01T13:49:23.512Z,2.92
2019-04-01T13:51:51.036Z,3.12
2019-04-01T13:54:18.485Z,3.77
2019-04-01T13:56:45.940Z,4.90
2019-04-01T13:59:13.268Z,4.15
2019-04-01T14:01:40.696Z,3.67
2019-04-01T14:04:08.283Z,5.95
2019-04-01T14:06:35.757Z,2.40
2019-04-01T14:09:05.080Z,3.62
2019-04-01T14:11:32.639Z,7.78
2019-04-01T14:14:00.089Z,4.47
2019-04-01T14:16:27.411Z,4.97
2019-04-01T14:18:54.782Z,5.03
2019-04-01T14:21:23.380Z,2.95
2019-04-01T14:23:50.845Z,2.98
2019-04-01T14:26:18.229Z,3.17
2019-04-01T14:28:46.147Z,3.22
2019-04-01T14:31:14.499Z,3.45
2019-04-01T14:33:41.834Z,2.47
2019-04-01T14:36:09.187Z,8.68
2019-04-01T14:38:36.489Z,4.47
2019-04-01T14:41:03.896Z,5.25
2019-04-01T14:43:31.370Z,5.60
2019-04-01T14:45:58.955Z,4.10
2019-04-01T14:48:26.335Z,4.05
2019-04-01T14:50:53.697Z,3.37
2019-04-01T14:53:21.047Z,4.22
2019-04-01T14:55:48.440Z,5.87
2019-04-01T14:58:15.823Z,2.83
2019-04-01T15:00:43.327Z,4.80
2019-04-01T15:03:10.779Z,3.08
2019-04-01T15:05:38.241Z,4.08
2019-04-01T15:08:05.649Z,4.95
2019-04-01T15:10:33.025Z,4.45
2019-04-01T15:13:05.882Z,2.80
2019-04-01T15:15:29.466Z,3.95
2019-04-01T15:17:56.951Z,8.58
2019-04-01T15:20:26.030Z,4.78
2019-04-01T15:22:53.640Z,3.37
2019-04-01T15:25:20.993Z,3.33
2019-04-01T15:27:48.283Z,4.28
2019-04-01T15:30:15.755Z,8.13
2019-04-01T15:32:43.145Z,2.37
2019-04-01T15:35:10.587Z,4.25
2019-04-01T15:37:37.918Z,2.92
2019-04-01T15:40:08.778Z,4.20
2019-04-01T15:42:36.167Z,3.35
2019-04-01T15:45:03.887Z,2.98
2019-04-01T15:47:31.216Z,3.10
2019-04-01T15:49:58.534Z,3.52
2019-04-01T15:52:25.849Z,3.40
2019-04-01T15:55:31.509Z,5.37
2019-04-01T15:57:59.347Z,5.53
2019-04-01T16:00:29.878Z,5.62
2019-04-01T16:02:57.220Z,3.08
2019-04-01T16:05:24.605Z,5.55
2019-04-01T16:07:51.962Z,3.42
2019-04-01T16:10:20.980Z,3.77
2019-04-01T16:12:48.557Z,7.08
2019-04-01T16:15:15.880Z,4.22
2019-04-01T16:17:43.238Z,4.75
2019-04-01T16:20:12.285Z,4.83
2019-04-01T16:22:39.583Z,3.50
2019-04-01T16:25:07.058Z,6.00
2019-04-01T16:27:34.436Z,3.95
2019-04-01T16:30:03.463Z,4.62
2019-04-01T16:32:30.863Z,5.05
2019-04-01T16:34:58.178Z,3.47
2019-04-01T16:37:25.490Z,4.20
2019-04-01T16:39:54.532Z,5.55
2019-04-01T16:42:21.931Z,4.62
2019-04-01T16:44:53.874Z,6.15
2019-04-01T16:47:19.373Z,3.22
2019-04-01T16:49:46.816Z,4.25
2019-04-01T16:52:15.626Z,3.05
2019-04-01T16:54:44.624Z,7.90
2019-04-01T16:57:12.056Z,3.72
2019-04-01T16:59:39.484Z,3.77
2019-04-01T17:02:17.268Z,4.53
2019-04-01T17:04:35.998Z,4.00
2019-04-01T17:07:03.505Z,4.22
2019-04-01T17:09:30.877Z,5.67
2019-04-01T17:11:59.219Z,5.12
2019-04-01T17:14:27.016Z,4.80
2019-04-01T17:16:54.569Z,5.83
2019-04-01T17:19:21.970Z,3.95
2019-04-01T17:21:49.386Z,6.17
2019-04-01T17:24:16.778Z,3.35
2019-04-01T17:26:45.708Z,8.50
2019-04-01T17:29:13.049Z,4.85
2019-04-01T17:31:40.389Z,4.58
2019-04-01T17:34:07.792Z,5.15
2019-04-01T17:36:35.184Z,3.35
2019-04-01T17:39:03.208Z,3.10
2019-04-01T17:41:30.676Z,5.85
2019-04-01T17:43:57.993Z,3.65
2019-04-01T17:46:26.541Z,4.92
2019-04-01T17:48:54.115Z,4.85
2019-04-01T17:51:21.499Z,4.03
2019-04-01T17:53:50.849Z,4.65
2019-04-01T17:56:20.409Z,5.67
2019-04-01T17:58:50.110Z,4.53
2019-04-01T18:01:24.709Z,3.35
2019-04-01T18:03:52.071Z,4.78
2019-04-01T18:06:19.492Z,4.00
2019-04-01T18:08:46.906Z,5.33
2019-04-01T18:11:15.990Z,6.28
2019-04-01T18:13:43.517Z,4.20
2019-04-01T18:16:11.063Z,3.42
2019-04-01T18:18:41.784Z,4.50
2019-04-01T18:21:10.537Z,7.22
2019-04-01T18:23:37.911Z,4.75
2019-04-01T18:26:05.477Z,4.83
2019-04-01T18:28:32.855Z,3.67
2019-04-01T18:31:01.024Z,7.47
2019-04-01T18:33:30.073Z,4.17
2019-04-01T18:35:57.613Z,7.40
2019-04-01T18:38:25.196Z,4.20
2019-04-01T18:40:52.748Z,5.80
2019-04-01T18:43:20.107Z,4.08
2019-04-01T18:45:47.568Z,5.65
2019-04-01T18:48:15.106Z,5.42
2019-04-01T18:50:43.277Z,3.83
2019-04-01T18:53:10.981Z,3.77
2019-04-01T18:55:38.338Z,5.42
2019-04-01T18:58:05.812Z,5.08
2019-04-01T19:00:33.224Z,6.33
2019-04-01T19:03:00.574Z,5.03
2019-04-01T19:05:27.948Z,3.60
2019-04-01T19:07:55.226Z,3.42
2019-04-01T19:10:22.555Z,4.97
2019-04-01T19:12:49.989Z,6.37
2019-04-01T19:15:17.427Z,5.17
2019-04-01T19:17:44.806Z,4.10
2019-04-01T19:20:12.421Z,9.58
2019-04-01T19:22:40.005Z,5.95
2019-04-01T19:25:07.612Z,4.78
2019-04-01T19:27:35.050Z,4.53
2019-04-01T19:30:02.738Z,5.40
2019-04-01T19:32:30.217Z,3.83
2019-04-01T19:34:57.649Z,3.27
2019-04-01T19:37:25.143Z,4.60
2019-04-01T19:39:53.688Z,3.85
2019-04-01T19:42:21.018Z,5.97
2019-04-01T19:44:48.341Z,4.05
2019-04-01T19:47:15.952Z,3.60
2019-04-01T19:49:43.265Z,4.37
2019-04-01T19:52:10.637Z,6.53
2019-04-01T19:54:37.942Z,4.50
2019-04-01T19:57:05.456Z,5.80
2019-04-01T19:59:35.617Z,8.85
2019-04-01T20:02:01.779Z,5.75
2019-04-01T20:04:29.235Z,5.30
2019-04-01T20:06:56.547Z,6.50
2019-04-01T20:09:23.904Z,4.25
2019-04-01T20:11:51.232Z,7.12
2019-04-01T20:14:18.649Z,5.35
2019-04-01T20:16:47.110Z,6.60
2019-04-01T20:19:14.610Z,7.00
2019-04-01T20:21:41.931Z,7.62
2019-04-01T20:24:09.284Z,4.95
2019-04-01T20:26:36.728Z,4.10
2019-04-01T20:29:04.403Z,4.20
2019-04-01T20:31:31.785Z,5.90
2019-04-01T20:33:59.162Z,3.95
2019-04-01T20:36:28.801Z,6.72
2019-04-01T20:38:57.279Z,4.37
2019-04-01T20:41:24.596Z,4.58
2019-04-01T20:43:51.982Z,5.10
2019-04-01T20:46:19.285Z,4.92
2019-04-01T20:48:46.571Z,4.00
2019-04-01T20:51:14.022Z,4.08
2019-04-01T20:53:41.409Z,4.05
2019-04-01T20:56:08.775Z,5.58
2019-04-01T20:58:36.078Z,6.28
2019-04-01T21:01:03.513Z,6.03
2019-04-01T21:03:30.900Z,5.25
2019-04-01T21:05:58.182Z,8.25
2019-04-01T21:08:25.557Z,3.75
2019-04-01T21:10:52.836Z,5.72
2019-04-01T21:13:20.160Z,4.42
2019-04-01T21:15:47.438Z,3.90
2019-04-01T21:18:14.757Z,5.78
2019-04-01T21:20:42.266Z,6.17
2019-04-01T21:23:09.866Z,6.37
2019-04-01T21:25:37.171Z,5.95
2019-04-01T21:28:04.495Z,5.55
2019-04-01T21:30:31.881Z,4.47
2019-04-01T21:32:59.209Z,4.08
2019-04-01T21:35:26.545Z,4.17
2019-04-01T21:37:53.838Z,4.92
2019-04-01T21:40:21.195Z,4.65
2019-04-01T21:42:48.546Z,4.20
2019-04-01T21:45:16.777Z,4.15
2019-04-01T21:47:44.127Z,4.28
2019-04-01T21:50:11.610Z,6.80
2019-04-01T21:52:38.970Z,4.10
